createdAt,value
2019-05-25T00:01:35.578Z,14.00
2019-05-25T00:04:04.127Z,14.10
2019-05-25T00:06:32.580Z,14.00
2019-05-25T00:09:01.027Z,14.00
2019-05-25T00:11:29.474Z,14.00
2019-05-25T00:13:57.938Z,14.00
2019-05-25T00:16:26.446Z,14.00
2019-05-25T00:18:54.906Z,14.00
2019-05-25T00:21:23.711Z,13.90
2019-05-25T00:23:52.627Z,13.70
2019-05-25T00:26:21.090Z,13.50
2019-05-25T00:28:49.550Z,13.30
2019-05-25T00:31:17.983Z,13.20
2019-05-25T00:33:46.456Z,13.30
2019-05-25T00:36:14.964Z,13.20
2019-05-25T00:38:43.512Z,13.10
2019-05-25T00:41:11.957Z,13.10
2019-05-25T00:43:40.406Z,13.10
2019-05-25T00:46:08.841Z,13.00
2019-05-25T00:48:37.289Z,13.10
2019-05-25T00:51:05.726Z,13.10
2019-05-25T00:53:34.193Z,13.10
2019-05-25T00:56:02.673Z,13.00
2019-05-25T00:58:31.118Z,13.00
2019-05-25T01:00:59.610Z,13.00
2019-05-25T01:03:28.117Z,12.90
2019-05-25T01:05:56.572Z,13.00
2019-05-25T01:08:25.031Z,13.00
2019-05-25T01:10:53.530Z,12.90
2019-05-25T01:13:22.002Z,12.90
2019-05-25T01:15:50.463Z,12.80
2019-05-25T01:18:18.986Z,12.90
2019-05-25T01:20:47.527Z,12.90
2019-05-25T01:23:15.971Z,12.90
2019-05-25T01:25:44.387Z,13.00
2019-05-25T01:28:12.845Z,13.00
2019-05-25T01:30:41.275Z,13.00
2019-05-25T01:33:10.054Z,13.10
2019-05-25T01:35:38.520Z,13.10
2019-05-25T01:38:06.995Z,13.00
2019-05-25T01:40:35.443Z,12.90
2019-05-25T01:43:03.946Z,12.90
2019-05-25T01:45:32.423Z,12.80
2019-05-25T01:48:01.116Z,12.70
2019-05-25T01:50:29.908Z,12.50
2019-05-25T01:52:58.375Z,12.50
2019-05-25T01:55:26.807Z,12.50
2019-05-25T01:57:55.906Z,12.50
2019-05-25T02:00:24.716Z,12.40
2019-05-25T02:02:53.144Z,12.30
2019-05-25T02:05:21.593Z,12.30
2019-05-25T02:07:50.044Z,12.10
2019-05-25T02:10:18.586Z,12.10
2019-05-25T02:12:47.040Z,12.10
2019-05-25T02:15:16.021Z,12.10
2019-05-25T02:17:44.846Z,12.00
2019-05-25T02:20:13.872Z,12.10
2019-05-25T02:22:42.369Z,12.10
2019-05-25T02:25:18.023Z,12.00
2019-05-25T02:27:42.106Z,12.00
2019-05-25T02:30:11.993Z,12.00
2019-05-25T02:32:40.442Z,12.00
2019-05-25T02:35:10.967Z,11.90
2019-05-25T02:37:39.404Z,12.00
2019-05-25T02:40:08.522Z,12.00
2019-05-25T02:42:37.003Z,11.90
2019-05-25T02:45:08.798Z,11.80
2019-05-25T02:47:37.240Z,11.70
2019-05-25T02:50:08.815Z,11.70
2019-05-25T02:52:37.274Z,11.70
2019-05-25T02:55:08.927Z,11.70
2019-05-25T02:57:37.355Z,11.70
2019-05-25T03:00:10.057Z,11.70
2019-05-25T03:02:38.962Z,11.50
2019-05-25T03:05:13.892Z,11.50
2019-05-25T03:07:44.654Z,11.50
2019-05-25T03:10:13.675Z,11.50
2019-05-25T03:12:43.078Z,11.50
2019-05-25T03:15:12.022Z,11.40
2019-05-25T03:17:40.475Z,11.30
2019-05-25T03:20:09.649Z,11.20
2019-05-25T03:22:38.094Z,11.20
2019-05-25T03:25:07.674Z,11.20
2019-05-25T03:27:36.097Z,11.20
2019-05-25T03:30:06.943Z,11.20
2019-05-25T03:32:35.380Z,11.20
2019-05-25T03:35:07.953Z,11.20
2019-05-25T03:37:36.402Z,11.20
2019-05-25T03:40:09.093Z,11.20
2019-05-25T03:42:37.543Z,11.10
2019-05-25T03:45:07.918Z,11.20
2019-05-25T03:47:36.412Z,11.10
2019-05-25T03:50:06.236Z,11.10
2019-05-25T03:52:34.694Z,11.10
2019-05-25T03:55:03.785Z,11.10
2019-05-25T03:57:32.238Z,11.10
2019-05-25T04:00:00.657Z,11.10
2019-05-25T04:02:29.118Z,11.10
2019-05-25T04:04:57.602Z,11.20
2019-05-25T04:07:26.090Z,11.20
2019-05-25T04:09:54.542Z,11.20
2019-05-25T04:12:22.994Z,11.30
2019-05-25T04:14:51.809Z,11.30
2019-05-25T04:17:20.250Z,11.30
2019-05-25T04:19:48.682Z,11.40
2019-05-25T04:22:17.166Z,11.40
2019-05-25T04:24:45.578Z,11.40
2019-05-25T04:27:14.039Z,11.40
2019-05-25T04:29:42.788Z,11.40
2019-05-25T04:32:11.261Z,11.40
2019-05-25T04:34:40.076Z,11.50
2019-05-25T04:37:08.542Z,11.50
2019-05-25T04:39:37.066Z,11.60
2019-05-25T04:42:05.566Z,11.60
2019-05-25T04:44:34.379Z,11.70
2019-05-25T04:47:02.835Z,11.70
2019-05-25T04:49:31.267Z,11.70
2019-05-25T04:51:59.703Z,11.70
2019-05-25T04:54:28.170Z,11.70
2019-05-25T04:56:56.616Z,11.70
2019-05-25T04:59:25.060Z,11.80
2019-05-25T05:01:53.516Z,11.80
2019-05-25T05:04:22.316Z,11.90
2019-05-25T05:06:50.865Z,12.00
2019-05-25T05:09:19.379Z,12.00
2019-05-25T05:11:47.862Z,11.90
2019-05-25T05:14:16.295Z,11.90
2019-05-25T05:16:44.758Z,11.90
2019-05-25T05:19:13.207Z,11.90
2019-05-25T05:21:41.641Z,11.90
2019-05-25T05:24:10.111Z,11.90
2019-05-25T05:26:54.228Z,11.90
2019-05-25T05:29:08.759Z,12.10
2019-05-25T05:31:37.478Z,12.20
2019-05-25T05:34:06.025Z,12.30
2019-05-25T05:36:35.335Z,12.40
2019-05-25T05:39:06.919Z,12.60
2019-05-25T05:41:38.227Z,12.80
2019-05-25T05:44:07.309Z,12.90
2019-05-25T05:46:38.340Z,13.00
2019-05-25T05:49:10.107Z,13.10
2019-05-25T05:51:39.102Z,13.20
2019-05-25T05:54:07.611Z,13.30
2019-05-25T05:56:36.388Z,13.40
2019-05-25T05:59:04.869Z,13.60
2019-05-25T06:01:33.318Z,13.70
2019-05-25T06:04:01.935Z,13.80
2019-05-25T06:06:30.634Z,13.90
2019-05-25T06:08:59.090Z,14.10
2019-05-25T06:11:27.546Z,14.10
2019-05-25T06:14:03.497Z,14.10
2019-05-25T06:16:31.998Z,14.20
2019-05-25T06:19:00.469Z,14.40
2019-05-25T06:21:29.384Z,14.50
2019-05-25T06:23:57.834Z,14.60
2019-05-25T06:26:26.310Z,14.70
2019-05-25T06:28:54.823Z,14.70
2019-05-25T06:31:23.274Z,14.90
2019-05-25T06:33:51.802Z,15.10
2019-05-25T06:36:20.268Z,15.40
2019-05-25T06:38:48.729Z,15.60
2019-05-25T06:41:17.208Z,15.70
2019-05-25T06:43:45.657Z,15.90
2019-05-25T06:46:14.076Z,16.10
2019-05-25T06:48:42.539Z,16.30
2019-05-25T06:51:11.002Z,16.60
2019-05-25T06:53:39.445Z,16.90
2019-05-25T06:56:07.908Z,17.10
2019-05-25T06:58:36.342Z,17.40
2019-05-25T07:01:05.546Z,17.60
2019-05-25T07:03:34.065Z,17.90
2019-05-25T07:06:02.552Z,18.20
2019-05-25T07:08:30.990Z,18.40
2019-05-25T07:10:59.480Z,18.60
2019-05-25T07:13:28.629Z,18.80
2019-05-25T07:15:57.275Z,18.90
2019-05-25T07:18:28.170Z,19.10
2019-05-25T07:20:56.623Z,19.50
2019-05-25T07:23:25.090Z,20.00
2019-05-25T07:25:53.529Z,20.30
2019-05-25T07:28:21.977Z,20.70
2019-05-25T07:30:50.452Z,21.00
2019-05-25T07:33:18.895Z,21.30
2019-05-25T07:35:47.333Z,21.60
2019-05-25T07:38:15.816Z,21.90
2019-05-25T07:40:44.338Z,22.30
2019-05-25T07:43:14.094Z,22.60
2019-05-25T07:45:43.287Z,22.90
2019-05-25T07:48:11.810Z,23.20
2019-05-25T07:50:40.256Z,23.10
2019-05-25T07:53:08.726Z,22.80
2019-05-25T07:55:37.182Z,22.80
2019-05-25T07:58:16.771Z,22.80
2019-05-25T08:00:36.000Z,22.50
2019-05-25T08:03:04.513Z,21.90
2019-05-25T08:05:32.970Z,21.60
2019-05-25T08:08:01.823Z,21.50
2019-05-25T08:10:30.743Z,22.00
2019-05-25T08:12:59.211Z,22.70
2019-05-25T08:15:27.668Z,23.30
2019-05-25T08:17:56.108Z,23.90
2019-05-25T08:20:24.566Z,24.50
2019-05-25T08:22:53.108Z,25.00
2019-05-25T08:25:21.654Z,25.30
2019-05-25T08:27:50.110Z,25.80
2019-05-25T08:30:18.739Z,26.30
2019-05-25T08:32:47.208Z,26.60
2019-05-25T08:35:17.218Z,26.50
2019-05-25T08:37:45.670Z,26.50
2019-05-25T08:40:14.963Z,26.40
2019-05-25T08:42:43.424Z,26.30
2019-05-25T08:45:12.502Z,26.40
2019-05-25T08:47:40.948Z,26.30
2019-05-25T08:50:09.720Z,26.50
2019-05-25T08:52:38.789Z,26.60
2019-05-25T08:55:07.865Z,26.90
2019-05-25T08:57:36.582Z,27.10
2019-05-25T09:00:06.551Z,27.30
2019-05-25T09:02:35.004Z,27.70
2019-05-25T09:05:05.718Z,27.90
2019-05-25T09:07:34.142Z,28.20
2019-05-25T09:10:02.618Z,28.40
2019-05-25T09:12:31.064Z,28.50
2019-05-25T09:14:59.502Z,28.80
2019-05-25T09:17:27.942Z,28.90
2019-05-25T09:19:56.415Z,28.80
2019-05-25T09:22:24.884Z,28.20
2019-05-25T09:24:53.648Z,27.70
2019-05-25T09:27:22.093Z,27.70
2019-05-25T09:29:50.608Z,28.00
2019-05-25T09:32:19.054Z,28.40
2019-05-25T09:34:47.516Z,28.70
2019-05-25T09:37:16.248Z,29.20
2019-05-25T09:39:44.670Z,29.40
2019-05-25T09:42:13.127Z,29.70
2019-05-25T09:44:41.895Z,29.80
2019-05-25T09:47:10.346Z,29.90
2019-05-25T09:49:38.795Z,30.30
2019-05-25T09:52:07.256Z,30.50
2019-05-25T09:54:35.684Z,30.70
2019-05-25T09:57:04.504Z,29.90
2019-05-25T09:59:32.938Z,28.30
2019-05-25T10:02:01.398Z,26.90
2019-05-25T10:04:29.854Z,26.40
2019-05-25T10:06:58.293Z,26.80
2019-05-25T10:09:26.794Z,27.60
2019-05-25T10:11:55.226Z,28.50
2019-05-25T10:14:23.667Z,29.30
2019-05-25T10:16:52.122Z,29.50
2019-05-25T10:19:20.554Z,29.50
2019-05-25T10:21:48.986Z,29.40
2019-05-25T10:24:17.424Z,28.60
2019-05-25T10:26:45.871Z,28.20
2019-05-25T10:29:14.317Z,28.50
2019-05-25T10:31:42.759Z,29.40
2019-05-25T10:34:11.642Z,29.90
2019-05-25T10:36:40.066Z,30.30
2019-05-25T10:39:09.574Z,30.80
2019-05-25T10:41:38.043Z,30.50
2019-05-25T10:44:06.495Z,30.10
2019-05-25T10:46:34.989Z,28.70
2019-05-25T10:49:03.717Z,27.90
2019-05-25T10:51:32.497Z,26.80
2019-05-25T10:54:00.955Z,26.90
2019-05-25T10:56:29.412Z,27.40
2019-05-25T10:58:57.863Z,28.10
2019-05-25T11:01:26.311Z,29.30
2019-05-25T11:03:54.757Z,29.10
2019-05-25T11:06:23.212Z,28.20
2019-05-25T11:08:52.031Z,28.30
2019-05-25T11:11:20.477Z,29.10
2019-05-25T11:13:48.904Z,29.90
2019-05-25T11:16:17.405Z,30.10
2019-05-25T11:18:45.899Z,29.50
2019-05-25T11:21:14.374Z,28.80
2019-05-25T11:23:42.817Z,29.00
2019-05-25T11:26:11.275Z,28.70
2019-05-25T11:28:39.989Z,28.30
2019-05-25T11:31:08.436Z,28.80
2019-05-25T11:33:36.867Z,28.90
2019-05-25T11:36:05.319Z,29.20
2019-05-25T11:38:33.836Z,29.10
2019-05-25T11:41:02.608Z,28.60
2019-05-25T11:43:31.046Z,28.00
2019-05-25T11:46:04.339Z,27.40
2019-05-25T11:48:32.780Z,26.60
2019-05-25T11:51:01.292Z,26.40
2019-05-25T11:53:29.722Z,27.20
2019-05-25T11:55:58.142Z,28.00
2019-05-25T11:58:27.071Z,28.30
2019-05-25T12:00:55.552Z,27.90
2019-05-25T12:03:24.077Z,27.30
2019-05-25T12:05:52.596Z,27.70
2019-05-25T12:08:21.408Z,28.50
2019-05-25T12:10:49.874Z,28.70
2019-05-25T12:13:18.374Z,28.60
2019-05-25T12:15:46.835Z,28.10
2019-05-25T12:18:15.274Z,28.70
2019-05-25T12:20:43.799Z,29.50
2019-05-25T12:23:12.521Z,29.80
2019-05-25T12:25:41.024Z,29.90
2019-05-25T12:28:13.502Z,29.80
2019-05-25T12:30:41.949Z,29.10
2019-05-25T12:33:10.390Z,27.90
2019-05-25T12:35:38.848Z,26.60
2019-05-25T12:38:08.774Z,26.10
2019-05-25T12:40:52.776Z,25.80
2019-05-25T12:43:09.383Z,25.80
2019-05-25T12:45:37.882Z,25.70
2019-05-25T12:48:06.344Z,25.70
2019-05-25T12:50:34.880Z,25.10
2019-05-25T12:53:03.359Z,24.40
2019-05-25T12:55:31.809Z,24.00
2019-05-25T12:58:00.296Z,23.50
2019-05-25T13:00:28.731Z,23.30
2019-05-25T13:03:06.234Z,23.00
2019-05-25T13:05:34.902Z,22.10
2019-05-25T13:08:03.537Z,21.40
2019-05-25T13:10:32.078Z,20.70
2019-05-25T13:13:02.163Z,20.30
2019-05-25T13:15:30.953Z,19.90
2019-05-25T13:17:59.396Z,19.50
2019-05-25T13:20:28.218Z,19.20
2019-05-25T13:22:58.039Z,19.00
2019-05-25T13:25:31.226Z,18.70
2019-05-25T13:27:59.714Z,18.40
2019-05-25T13:30:28.177Z,18.30
2019-05-25T13:32:56.610Z,17.90
2019-05-25T13:35:25.064Z,17.70
2019-05-25T13:37:53.529Z,17.50
2019-05-25T13:40:22.144Z,17.30
2019-05-25T13:42:50.995Z,17.20
2019-05-25T13:45:19.530Z,17.40
2019-05-25T13:47:47.976Z,17.50
2019-05-25T13:50:16.469Z,17.60
2019-05-25T13:52:44.944Z,17.50
2019-05-25T13:55:13.535Z,17.40
2019-05-25T13:57:49.152Z,17.40
2019-05-25T14:00:18.729Z,17.30
2019-05-25T14:02:47.171Z,17.30
2019-05-25T14:05:15.725Z,17.40
2019-05-25T14:07:44.242Z,17.50
2019-05-25T14:10:13.427Z,17.60
2019-05-25T14:12:42.028Z,17.70
2019-05-25T14:15:11.060Z,17.80
2019-05-25T14:17:39.720Z,17.70
2019-05-25T14:20:09.635Z,17.80
2019-05-25T14:22:38.080Z,18.00
2019-05-25T14:25:10.180Z,18.10
2019-05-25T14:27:38.676Z,18.50
2019-05-25T14:30:10.969Z,19.20
2019-05-25T14:32:39.449Z,20.00
2019-05-25T14:35:08.094Z,21.50
2019-05-25T14:37:36.644Z,23.40
2019-05-25T14:40:11.226Z,25.70
2019-05-25T14:42:38.405Z,27.10
2019-05-25T14:45:08.514Z,28.30
2019-05-25T14:47:37.059Z,30.10
2019-05-25T14:50:09.563Z,31.60
2019-05-25T14:52:38.038Z,31.30
2019-05-25T14:55:10.431Z,30.60
2019-05-25T14:57:38.876Z,31.70
2019-05-25T15:00:10.152Z,33.20
2019-05-25T15:02:38.590Z,34.60
2019-05-25T15:05:07.574Z,35.90
2019-05-25T15:07:36.023Z,36.60
2019-05-25T15:10:08.037Z,36.20
2019-05-25T15:12:36.473Z,35.70
2019-05-25T15:15:08.714Z,36.10
2019-05-25T15:17:37.527Z,35.80
2019-05-25T15:20:09.614Z,35.00
2019-05-25T15:22:38.078Z,34.50
2019-05-25T15:25:08.711Z,33.50
2019-05-25T15:27:37.151Z,33.40
2019-05-25T15:30:08.825Z,33.60
2019-05-25T15:32:37.249Z,33.70
2019-05-25T15:35:07.034Z,34.30
2019-05-25T15:37:35.550Z,33.80
2019-05-25T15:40:06.720Z,32.20
2019-05-25T15:42:35.166Z,29.60
2019-05-25T15:45:04.594Z,28.20
2019-05-25T15:47:33.094Z,26.80
2019-05-25T15:50:01.557Z,25.70
2019-05-25T15:52:30.071Z,24.90
2019-05-25T15:54:58.497Z,24.30
2019-05-25T15:57:27.248Z,23.80
2019-05-25T15:59:55.708Z,23.40
2019-05-25T16:02:36.144Z,23.00
2019-05-25T16:04:54.344Z,22.80
2019-05-25T16:07:22.787Z,22.40
2019-05-25T16:09:51.246Z,22.20
2019-05-25T16:12:19.693Z,22.20
2019-05-25T16:14:48.171Z,22.30
2019-05-25T16:17:16.615Z,22.60
2019-05-25T16:19:45.058Z,22.80
2019-05-25T16:22:13.892Z,22.90
2019-05-25T16:24:42.688Z,22.90
2019-05-25T16:27:11.138Z,22.90
2019-05-25T16:29:39.589Z,22.90
2019-05-25T16:32:08.033Z,22.80
2019-05-25T16:34:36.503Z,22.80
2019-05-25T16:37:05.047Z,22.80
2019-05-25T16:39:33.621Z,22.90
2019-05-25T16:42:02.084Z,23.80
2019-05-25T16:44:30.576Z,25.60
2019-05-25T16:46:59.022Z,27.50
2019-05-25T16:49:27.468Z,28.80
2019-05-25T16:51:55.937Z,29.30
2019-05-25T16:54:24.366Z,29.10
2019-05-25T16:56:52.815Z,28.60
2019-05-25T16:59:21.284Z,27.20
2019-05-25T17:01:49.755Z,26.00
2019-05-25T17:04:20.130Z,25.40
2019-05-25T17:06:48.603Z,24.90
2019-05-25T17:09:17.045Z,24.50
2019-05-25T17:11:45.482Z,23.90
2019-05-25T17:14:13.945Z,23.80
2019-05-25T17:16:42.392Z,24.10
2019-05-25T17:19:10.852Z,24.20
2019-05-25T17:21:39.297Z,24.20
2019-05-25T17:24:07.759Z,24.40
2019-05-25T17:26:36.198Z,24.60
2019-05-25T17:29:04.677Z,24.70
2019-05-25T17:31:33.114Z,24.50
2019-05-25T17:34:01.564Z,23.90
2019-05-25T17:36:30.007Z,23.80
2019-05-25T17:38:58.527Z,23.70
2019-05-25T17:41:26.985Z,23.80
2019-05-25T17:43:55.470Z,23.50
2019-05-25T17:46:24.359Z,23.20
2019-05-25T17:48:52.855Z,23.20
2019-05-25T17:51:21.324Z,23.20
2019-05-25T17:53:49.760Z,23.10
2019-05-25T17:56:18.242Z,23.00
2019-05-25T17:58:46.681Z,22.80
2019-05-25T18:01:15.142Z,22.60
2019-05-25T18:03:43.593Z,22.30
2019-05-25T18:06:12.181Z,21.80
2019-05-25T18:08:40.621Z,21.50
2019-05-25T18:11:09.059Z,21.30
2019-05-25T18:13:37.508Z,21.20
2019-05-25T18:16:05.949Z,21.10
2019-05-25T18:18:34.677Z,21.00
2019-05-25T18:21:03.154Z,20.70
2019-05-25T18:23:31.596Z,20.40
2019-05-25T18:26:00.053Z,20.10
2019-05-25T18:28:28.560Z,19.80
2019-05-25T18:30:57.031Z,19.50
2019-05-25T18:33:25.588Z,19.30
2019-05-25T18:35:54.068Z,19.00
2019-05-25T18:38:22.539Z,18.90
2019-05-25T18:40:50.994Z,18.80
2019-05-25T18:43:19.798Z,18.70
2019-05-25T18:45:48.251Z,18.60
2019-05-25T18:48:19.767Z,18.50
2019-05-25T18:50:48.327Z,18.40
2019-05-25T18:53:16.845Z,18.30
2019-05-25T18:55:45.286Z,18.30
2019-05-25T18:58:13.734Z,18.30
2019-05-25T19:00:42.262Z,18.20
2019-05-25T19:03:10.717Z,18.00
2019-05-25T19:05:39.177Z,17.80
2019-05-25T19:08:07.639Z,17.60
2019-05-25T19:10:36.081Z,17.60
2019-05-25T19:13:04.655Z,17.50
2019-05-25T19:15:33.180Z,17.50
2019-05-25T19:18:01.671Z,17.40
2019-05-25T19:20:30.289Z,17.40
2019-05-25T19:22:58.810Z,17.30
2019-05-25T19:25:27.287Z,17.30
2019-05-25T19:27:55.804Z,17.20
2019-05-25T19:30:24.918Z,17.10
2019-05-25T19:32:53.384Z,17.10
2019-05-25T19:35:21.903Z,17.00
2019-05-25T19:37:50.360Z,17.00
2019-05-25T19:40:19.125Z,16.90
2019-05-25T19:42:49.969Z,16.90
2019-05-25T19:45:19.626Z,16.80
2019-05-25T19:47:48.557Z,16.70
2019-05-25T19:50:17.100Z,16.60
2019-05-25T19:52:45.644Z,16.50
2019-05-25T19:55:15.036Z,16.30
2019-05-25T19:57:45.441Z,16.30
2019-05-25T20:00:15.385Z,16.20
2019-05-25T20:02:43.830Z,16.00
2019-05-25T20:05:16.747Z,15.90
2019-05-25T20:07:44.164Z,15.90
2019-05-25T20:10:14.146Z,15.90
2019-05-25T20:12:42.634Z,15.90
2019-05-25T20:15:11.997Z,15.90
2019-05-25T20:17:40.779Z,15.70
2019-05-25T20:20:11.142Z,15.70
2019-05-25T20:22:39.693Z,15.60
2019-05-25T20:25:09.645Z,15.60
2019-05-25T20:27:38.084Z,15.50
2019-05-25T20:30:08.156Z,15.40
2019-05-25T20:32:36.586Z,15.40
2019-05-25T20:35:08.679Z,15.40
2019-05-25T20:37:37.163Z,15.30
2019-05-25T20:40:09.078Z,15.30
2019-05-25T20:42:38.090Z,15.30
2019-05-25T20:45:08.259Z,15.30
2019-05-25T20:47:36.804Z,15.30
2019-05-25T20:50:09.508Z,15.20
2019-05-25T20:52:37.948Z,15.00
2019-05-25T20:55:11.019Z,14.70
2019-05-25T20:57:39.463Z,14.60
2019-05-25T21:00:10.254Z,14.50
2019-05-25T21:02:39.107Z,14.40
2019-05-25T21:05:08.384Z,14.30
2019-05-25T21:07:36.820Z,14.20
2019-05-25T21:10:08.174Z,14.10
2019-05-25T21:12:36.694Z,14.10
2019-05-25T21:15:09.733Z,14.20
2019-05-25T21:17:38.170Z,14.20
2019-05-25T21:20:07.277Z,14.10
2019-05-25T21:22:35.719Z,14.10
2019-05-25T21:25:07.571Z,14.10
2019-05-25T21:27:35.993Z,14.10
2019-05-25T21:30:06.264Z,14.20
2019-05-25T21:32:34.699Z,14.10
2019-05-25T21:35:03.513Z,14.10
2019-05-25T21:37:31.993Z,14.10
2019-05-25T21:40:00.426Z,14.10
2019-05-25T21:42:28.931Z,14.10
2019-05-25T21:44:57.367Z,14.10
2019-05-25T21:47:25.789Z,14.20
2019-05-25T21:49:54.237Z,14.20
2019-05-25T21:52:22.677Z,14.20
2019-05-25T21:54:51.233Z,14.20
2019-05-25T21:57:19.710Z,14.30
2019-05-25T21:59:48.237Z,14.30
2019-05-25T22:02:16.804Z,14.30
2019-05-25T22:04:45.237Z,14.20
2019-05-25T22:07:13.691Z,14.10
2019-05-25T22:09:42.205Z,14.10
2019-05-25T22:12:10.669Z,14.10
2019-05-25T22:14:39.201Z,14.10
2019-05-25T22:17:07.640Z,14.10
2019-05-25T22:19:36.105Z,14.10
2019-05-25T22:22:04.946Z,14.10
2019-05-25T22:24:33.375Z,14.10
2019-05-25T22:27:01.846Z,14.10
2019-05-25T22:29:30.292Z,14.10
2019-05-25T22:31:58.815Z,14.10
2019-05-25T22:34:27.230Z,14.20
2019-05-25T22:36:55.686Z,14.20
2019-05-25T22:39:24.132Z,14.20
2019-05-25T22:41:52.588Z,14.20
2019-05-25T22:44:21.023Z,14.10
2019-05-25T22:46:49.884Z,14.20
2019-05-25T22:49:18.313Z,14.20
2019-05-25T22:51:46.734Z,14.20
2019-05-25T22:54:15.166Z,14.20
2019-05-25T22:56:43.628Z,14.20
2019-05-25T22:59:12.077Z,14.30
2019-05-25T23:01:40.552Z,14.30
2019-05-25T23:04:08.981Z,14.30
2019-05-25T23:06:37.449Z,14.20
2019-05-25T23:09:07.761Z,14.10
2019-05-25T23:11:36.204Z,14.00
2019-05-25T23:14:04.687Z,14.00
2019-05-25T23:16:33.130Z,13.90
2019-05-25T23:19:01.575Z,13.90
2019-05-25T23:21:30.024Z,13.90
2019-05-25T23:23:58.455Z,13.90
2019-05-25T23:26:26.891Z,13.90
2019-05-25T23:28:55.792Z,13.90
2019-05-25T23:31:24.243Z,13.90
2019-05-25T23:33:52.666Z,13.90
2019-05-25T23:36:21.412Z,13.90
2019-05-25T23:38:49.861Z,13.90
2019-05-25T23:41:18.308Z,13.90
2019-05-25T23:43:46.757Z,13.90
2019-05-25T23:46:15.200Z,14.00
2019-05-25T23:48:43.636Z,14.00
2019-05-25T23:51:12.101Z,14.00
2019-05-25T23:53:40.547Z,14.00
2019-05-25T23:56:09.020Z,14.00
2019-05-25T23:58:37.483Z,14.00
